createdAt,value
2023-01-29T00:04:19.801Z,24.0
2023-01-29T00:09:26.016Z,22.0
2023-01-29T00:14:32.207Z,24.0
2023-01-29T00:19:38.418Z,25.0
2023-01-29T00:24:44.626Z,25.0
2023-01-29T00:29:50.848Z,23.0
2023-01-29T00:34:57.053Z,23.0
2023-01-29T00:40:03.248Z,22.0
2023-01-29T00:45:09.452Z,21.0
2023-01-29T00:50:16.009Z,22.0
2023-01-29T00:55:21.872Z,22.0
2023-01-29T01:00:28.079Z,20.0
2023-01-29T01:05:34.286Z,20.0
2023-01-29T01:10:40.492Z,20.0
2023-01-29T01:15:46.850Z,21.0
2023-01-29T01:20:52.903Z,21.0
2023-01-29T01:25:59.112Z,21.0
2023-01-29T01:31:05.440Z,21.0
2023-01-29T01:36:11.528Z,21.0
2023-01-29T01:41:16.763Z,22.0
2023-01-29T01:46:23.010Z,21.0
2023-01-29T01:51:28.206Z,22.0
2023-01-29T01:56:33.427Z,22.0
2023-01-29T02:01:39.642Z,23.0
2023-01-29T02:06:45.839Z,22.0
2023-01-29T02:11:52.061Z,23.0
2023-01-29T02:16:58.254Z,24.0
2023-01-29T02:22:04.513Z,23.0
2023-01-29T02:27:10.668Z,25.0
2023-01-29T02:32:16.876Z,24.0
2023-01-29T02:37:23.089Z,27.0
2023-01-29T02:42:29.289Z,26.0
2023-01-29T02:47:35.495Z,26.0
2023-01-29T02:52:41.702Z,27.0
2023-01-29T02:57:47.912Z,27.0
2023-01-29T03:02:54.119Z,28.0
2023-01-29T03:08:00.328Z,29.0
2023-01-29T03:13:06.532Z,30.0
2023-01-29T03:18:12.743Z,30.5
2023-01-29T03:23:18.949Z,30.0
2023-01-29T03:28:25.144Z,31.0
2023-01-29T03:33:31.371Z,29.0
2023-01-29T03:38:36.591Z,31.5
2023-01-29T03:43:42.810Z,29.0
2023-01-29T03:48:48.034Z,31.0
2023-01-29T03:53:54.243Z,30.0
2023-01-29T03:59:00.449Z,30.0
2023-01-29T04:04:06.742Z,31.5
2023-01-29T04:09:12.939Z,30.0
2023-01-29T04:14:19.064Z,33.0
2023-01-29T04:19:25.282Z,32.0
2023-01-29T04:24:31.590Z,33.0
2023-01-29T04:29:37.697Z,32.0
2023-01-29T04:34:43.900Z,33.0
2023-01-29T04:39:50.122Z,33.0
2023-01-29T04:44:56.330Z,32.0
2023-01-29T04:50:02.516Z,34.0
2023-01-29T04:55:08.735Z,34.0
2023-01-29T05:00:15.415Z,32.0
2023-01-29T05:05:21.139Z,30.0
2023-01-29T05:10:27.343Z,31.0
2023-01-29T05:15:33.550Z,33.0
2023-01-29T05:20:39.759Z,32.0
2023-01-29T05:25:45.964Z,33.5
2023-01-29T05:30:52.267Z,31.0
2023-01-29T05:35:57.409Z,31.0
2023-01-29T05:41:03.616Z,32.0
2023-01-29T05:46:08.865Z,32.0
2023-01-29T05:51:15.054Z,32.0
2023-01-29T05:56:21.272Z,32.0
2023-01-29T06:01:27.472Z,32.5
2023-01-29T06:06:33.685Z,32.0
2023-01-29T06:11:39.893Z,32.0
2023-01-29T06:16:46.086Z,32.0
2023-01-29T06:21:52.301Z,32.0
2023-01-29T06:26:58.502Z,32.0
2023-01-29T06:32:04.886Z,32.5
2023-01-29T06:37:10.931Z,33.0
2023-01-29T06:42:17.143Z,32.0
2023-01-29T06:47:23.342Z,33.5
2023-01-29T06:52:29.540Z,35.0
2023-01-29T06:57:35.747Z,32.0
2023-01-29T07:02:41.960Z,34.0
2023-01-29T07:07:48.164Z,33.5
2023-01-29T07:12:54.373Z,34.0
2023-01-29T07:18:00.581Z,37.0
2023-01-29T07:23:06.791Z,35.0
2023-01-29T07:28:12.993Z,34.0
2023-01-29T07:33:18.230Z,35.0
2023-01-29T07:38:24.430Z,35.0
2023-01-29T07:43:29.668Z,35.0
2023-01-29T07:48:35.904Z,34.0
2023-01-29T07:53:42.087Z,35.0
2023-01-29T07:58:48.295Z,34.0
2023-01-29T08:03:54.519Z,33.0
2023-01-29T08:09:00.793Z,34.0
2023-01-29T08:14:06.917Z,32.0
2023-01-29T08:19:13.189Z,34.5
2023-01-29T08:24:19.366Z,33.0
2023-01-29T08:29:25.546Z,32.0
2023-01-29T08:34:31.761Z,34.0
2023-01-29T08:39:37.954Z,32.0
2023-01-29T08:44:44.188Z,33.0
2023-01-29T08:49:50.365Z,31.5
2023-01-29T08:54:56.618Z,34.0
2023-01-29T09:00:02.781Z,35.0
2023-01-29T09:05:08.991Z,34.0
2023-01-29T09:10:15.215Z,33.0
2023-01-29T09:15:21.405Z,31.5
2023-01-29T09:20:27.608Z,33.0
2023-01-29T09:25:33.822Z,33.0
2023-01-29T09:30:39.199Z,32.0
2023-01-29T09:35:45.281Z,31.0
2023-01-29T09:40:51.474Z,33.0
2023-01-29T09:45:56.762Z,30.0
2023-01-29T09:51:02.923Z,30.0
2023-01-29T09:56:09.120Z,31.0
2023-01-29T10:01:15.452Z,29.0
2023-01-29T10:06:21.565Z,31.0
2023-01-29T10:11:27.757Z,31.0
2023-01-29T10:16:33.996Z,30.0
2023-01-29T10:21:40.163Z,30.0
2023-01-29T10:26:46.404Z,29.0
2023-01-29T10:31:52.713Z,29.0
2023-01-29T10:36:58.781Z,29.0
2023-01-29T10:42:04.998Z,30.0
2023-01-29T10:47:11.212Z,30.5
2023-01-29T10:52:17.409Z,28.0
2023-01-29T10:57:23.610Z,29.0
2023-01-29T11:02:29.833Z,27.5
2023-01-29T11:07:36.170Z,29.0
2023-01-29T11:12:42.246Z,27.0
2023-01-29T11:17:48.444Z,26.0
2023-01-29T11:22:54.646Z,26.0
2023-01-29T11:28:00.867Z,26.0
2023-01-29T11:33:06.114Z,23.5
2023-01-29T11:38:12.321Z,23.0
2023-01-29T11:43:17.534Z,25.0
2023-01-29T11:48:23.742Z,24.0
2023-01-29T11:53:29.954Z,22.0
2023-01-29T11:58:36.167Z,22.0
2023-01-29T12:03:42.376Z,23.0
2023-01-29T12:08:48.576Z,23.0
2023-01-29T12:13:54.781Z,20.0
2023-01-29T12:19:00.989Z,21.0
2023-01-29T12:24:07.199Z,20.0
2023-01-29T12:29:13.397Z,20.0
2023-01-29T12:34:19.607Z,19.0
2023-01-29T12:39:25.825Z,21.0
2023-01-29T12:44:32.025Z,20.0
2023-01-29T12:49:38.236Z,20.0
2023-01-29T12:54:44.463Z,20.0
2023-01-29T12:59:50.648Z,20.0
2023-01-29T13:04:56.861Z,21.0
2023-01-29T13:10:03.079Z,22.0
2023-01-29T13:15:09.267Z,23.0
2023-01-29T13:20:15.756Z,23.0
2023-01-29T13:25:21.684Z,24.0
2023-01-29T13:30:26.919Z,24.0
2023-01-29T13:35:33.152Z,24.0
2023-01-29T13:40:38.372Z,24.0
2023-01-29T13:45:44.673Z,24.0
2023-01-29T13:50:50.787Z,25.0
2023-01-29T13:55:57.034Z,24.5
2023-01-29T14:01:03.288Z,25.0
2023-01-29T14:06:09.416Z,25.0
2023-01-29T14:11:15.615Z,25.0
2023-01-29T14:16:21.845Z,25.0
2023-01-29T14:21:28.031Z,27.0
2023-01-29T14:26:34.394Z,29.0
2023-01-29T14:31:40.473Z,26.0
2023-01-29T14:36:46.646Z,28.0
2023-01-29T14:41:52.999Z,27.0
2023-01-29T14:46:59.069Z,29.0
2023-01-29T14:52:05.270Z,27.0
2023-01-29T14:57:11.488Z,28.0
2023-01-29T15:02:17.717Z,28.5
2023-01-29T15:07:23.895Z,29.0
2023-01-29T15:12:30.268Z,28.0
2023-01-29T15:17:36.360Z,29.0
2023-01-29T15:22:42.522Z,27.0
2023-01-29T15:27:47.753Z,28.0
2023-01-29T15:32:53.962Z,28.0
2023-01-29T15:37:59.211Z,28.0
2023-01-29T15:43:05.412Z,27.0
2023-01-29T15:48:11.620Z,27.0
2023-01-29T15:53:17.930Z,28.0
2023-01-29T15:58:24.049Z,27.0
2023-01-29T16:03:30.239Z,27.0
2023-01-29T16:08:36.452Z,25.5
2023-01-29T16:13:42.655Z,29.0
2023-01-29T16:18:59.501Z,26.0
2023-01-29T16:23:55.087Z,26.0
2023-01-29T16:29:01.281Z,26.0
2023-01-29T16:34:07.504Z,27.0
2023-01-29T16:39:13.697Z,27.0
2023-01-29T16:44:19.899Z,28.0
2023-01-29T16:49:26.213Z,25.0
2023-01-29T16:54:32.323Z,28.0
2023-01-29T16:59:38.531Z,28.0
2023-01-29T17:04:44.734Z,28.0
2023-01-29T17:09:50.941Z,27.0
2023-01-29T17:14:57.154Z,27.0
2023-01-29T17:20:03.358Z,28.0
2023-01-29T17:25:08.618Z,27.0
2023-01-29T17:30:14.797Z,26.5
2023-01-29T17:35:20.388Z,26.0
2023-01-29T17:40:26.248Z,25.0
2023-01-29T17:45:32.518Z,23.0
2023-01-29T17:50:38.663Z,23.5
2023-01-29T17:55:44.882Z,23.0
2023-01-29T18:00:51.095Z,22.0
2023-01-29T18:05:57.279Z,22.5
2023-01-29T18:11:03.507Z,22.0
2023-01-29T18:16:09.723Z,23.0
2023-01-29T18:21:15.902Z,23.0
2023-01-29T18:26:22.137Z,22.0
2023-01-29T18:31:28.347Z,21.5
2023-01-29T18:36:34.602Z,22.0
2023-01-29T18:41:40.738Z,24.0
2023-01-29T18:46:46.946Z,23.0
2023-01-29T18:51:53.154Z,24.0
2023-01-29T18:57:12.904Z,22.0
2023-01-29T19:02:04.676Z,22.5
2023-01-29T19:07:10.793Z,23.0
2023-01-29T19:12:17.003Z,23.0
2023-01-29T19:17:23.288Z,23.0
2023-01-29T19:22:28.442Z,22.0
2023-01-29T19:27:34.652Z,23.0
2023-01-29T19:32:39.898Z,24.0
2023-01-29T19:37:46.102Z,26.0
2023-01-29T19:42:52.312Z,26.0
2023-01-29T19:47:58.879Z,26.0
2023-01-29T19:53:04.717Z,25.0
2023-01-29T19:58:10.926Z,27.0
2023-01-29T20:03:17.133Z,26.0
2023-01-29T20:08:23.338Z,30.0
2023-01-29T20:13:29.554Z,27.0
2023-01-29T20:18:35.754Z,28.0
2023-01-29T20:23:42.682Z,30.0
2023-01-29T20:28:48.168Z,28.0
2023-01-29T20:33:54.413Z,28.0
2023-01-29T20:39:00.588Z,30.0
2023-01-29T20:44:06.797Z,28.5
2023-01-29T20:49:13.032Z,29.0
2023-01-29T20:54:19.207Z,31.0
2023-01-29T20:59:25.418Z,28.0
2023-01-29T21:04:31.624Z,30.0
2023-01-29T21:09:37.840Z,29.0
2023-01-29T21:14:44.036Z,28.0
2023-01-29T21:19:49.277Z,29.0
2023-01-29T21:24:55.476Z,29.0
2023-01-29T21:30:00.709Z,30.0
2023-01-29T21:35:06.925Z,30.0
2023-01-29T21:40:13.128Z,30.0
2023-01-29T21:45:19.339Z,28.0
2023-01-29T21:50:25.547Z,29.0
2023-01-29T21:55:31.875Z,30.0
2023-01-29T22:00:37.958Z,29.0
2023-01-29T22:05:44.179Z,27.5
2023-01-29T22:10:50.371Z,31.0
2023-01-29T22:15:56.583Z,29.0
2023-01-29T22:21:02.790Z,29.0
2023-01-29T22:26:09.220Z,30.0
2023-01-29T22:31:15.204Z,31.5
2023-01-29T22:36:21.458Z,31.0
2023-01-29T22:41:27.617Z,32.0
2023-01-29T22:46:33.948Z,32.0
2023-01-29T22:51:40.044Z,32.0
2023-01-29T22:56:46.238Z,31.0
2023-01-29T23:01:52.481Z,33.0
2023-01-29T23:06:58.655Z,32.0
2023-01-29T23:12:04.854Z,32.0
2023-01-29T23:17:10.088Z,34.0
2023-01-29T23:22:16.297Z,31.0
2023-01-29T23:27:21.565Z,32.0
2023-01-29T23:32:27.913Z,34.0
2023-01-29T23:37:33.948Z,34.0
2023-01-29T23:42:40.155Z,34.0
2023-01-29T23:47:46.363Z,32.0
2023-01-29T23:52:52.568Z,33.0
2023-01-29T23:57:58.780Z,34.0
